Time;durP1;ratioP1;P1;durP2;ratioP2;P2;SDS_P1;SDS_P2;PMS_P1;PMS_P2;Temp;Humidity;BMP_temperature;BMP_pressure;BME280_temperature;BME280_humidity;BME280_pressure;Samples;Min_cycle;Max_cycle;Signal;HPM_P1;HPM_P2
2023/03/23 07:32:13;;;;;;;3.40;1.67;;;15.60;72.00;;;;;;6615074;23;20051;-78
2023/03/23 07:35:15;;;;;;;4.68;1.65;;;15.60;72.70;;;;;;6151041;28;20195;-75
2023/03/23 07:38:17;;;;;;;3.85;1.52;;;15.60;72.60;;;;;;6130665;29;20134;-80
2023/03/23 07:41:20;;;;;;;5.47;1.70;;;15.60;72.00;;;;;;6132803;29;20054;-79
2023/03/23 07:44:23;;;;;;;3.47;1.42;;;15.50;71.60;;;;;;6133876;29;20047;-80
2023/03/23 07:47:26;;;;;;;4.00;1.50;;;15.50;71.60;;;;;;6136128;29;20058;-77
2023/03/23 07:50:28;;;;;;;4.20;1.50;;;15.50;71.60;;;;;;6134238;29;20060;-79
2023/03/23 07:53:30;;;;;;;5.20;1.50;;;15.50;71.90;;;;;;6133093;29;20054;-77
2023/03/23 07:56:32;;;;;;;5.13;1.75;;;15.50;72.10;;;;;;6190603;28;20053;-78
2023/03/23 07:59:34;;;;;;;9.35;1.88;;;15.60;72.20;;;;;;6201888;28;20050;-77
2023/03/23 08:02:38;;;;;;;5.15;1.80;;;15.60;72.10;;;;;;6185807;28;20050;-78
2023/03/23 08:05:41;;;;;;;4.85;1.80;;;15.70;71.70;;;;;;6177836;28;20101;-80
2023/03/23 08:08:43;;;;;;;4.45;1.80;;;15.70;71.50;;;;;;6175957;28;20053;-79
2023/03/23 08:11:44;;;;;;;5.72;1.70;;;15.80;72.00;;;;;;6177979;28;20058;-76
2023/03/23 08:14:47;;;;;;;5.03;1.60;;;15.80;71.50;;;;;;6173447;28;20161;-77
2023/03/23 08:17:52;;;;;;;3.53;1.58;;;15.90;71.60;;;;;;6165649;28;20089;-77
2023/03/23 08:20:53;;;;;;;3.35;1.58;;;16.00;71.70;;;;;;6165601;28;20109;-77
2023/03/23 08:23:55;;;;;;;3.50;1.58;;;16.00;72.20;;;;;;6150341;29;20050;-77
2023/03/23 08:26:57;;;;;;;5.63;2.03;;;16.10;72.00;;;;;;6149934;29;20070;-79
2023/03/23 08:30:00;;;;;;;4.30;1.63;;;16.10;71.90;;;;;;6150134;29;20358;-78
2023/03/23 08:33:04;;;;;;;4.68;1.67;;;16.10;72.30;;;;;;6149995;28;20051;-77
2023/03/23 08:36:08;;;;;;;4.18;1.67;;;16.20;72.50;;;;;;6164503;29;20143;-78
2023/03/23 08:39:10;;;;;;;3.00;1.60;;;16.20;72.20;;;;;;6174203;28;20043;-77
2023/03/23 08:42:13;;;;;;;5.10;1.80;;;16.20;72.60;;;;;;6188871;28;20070;-80
2023/03/23 08:45:19;;;;;;;3.95;1.40;;;16.20;72.80;;;;;;6215222;28;20141;-77
2023/03/23 08:48:24;;;;;;;3.75;1.50;;;16.30;72.80;;;;;;6192953;28;20147;-76
2023/03/23 08:51:27;;;;;;;3.47;1.50;;;16.40;72.90;;;;;;6173553;28;20050;-79
2023/03/23 08:54:31;;;;;;;4.82;1.50;;;16.40;73.30;;;;;;6155933;28;20528;-77
2023/03/23 08:57:33;;;;;;;;;;;16.40;73.40;;;;;;6153814;28;20051;-79
2023/03/23 09:00:35;;;;;;;3.05;1.23;;;16.30;73.70;;;;;;6166187;28;20040;-77
2023/03/23 09:03:40;;;;;;;3.22;1.40;;;16.20;74.10;;;;;;6173620;28;20112;-77
2023/03/23 09:06:42;;;;;;;4.53;1.42;;;16.20;74.40;;;;;;6172896;28;20182;-78
2023/03/23 09:09:44;;;;;;;5.43;1.60;;;16.20;75.00;;;;;;6160134;28;20407;-77
2023/03/23 09:12:48;;;;;;;3.08;1.50;;;16.10;74.90;;;;;;6149679;29;20047;-77
2023/03/23 09:15:51;;;;;;;3.20;1.50;;;16.10;75.50;;;;;;6149451;29;20051;-77
2023/03/23 09:18:55;;;;;;;4.05;1.63;;;16.20;75.20;;;;;;6150109;29;20062;-77
2023/03/23 09:21:57;;;;;;;3.65;1.67;;;16.10;75.40;;;;;;6150332;28;20051;-78
2023/03/23 09:24:58;;;;;;;3.88;1.60;;;16.20;75.50;;;;;;6152268;28;20051;-78
2023/03/23 09:28:02;;;;;;;5.50;2.75;;;16.30;75.80;;;;;;6174090;28;20062;-77
2023/03/23 09:31:04;;;;;;;4.50;1.80;;;16.50;75.70;;;;;;6177614;28;20058;-77
2023/03/23 09:34:09;;;;;;;3.88;1.80;;;16.50;76.50;;;;;;6171673;28;20051;-76
2023/03/23 09:37:12;;;;;;;5.15;1.60;;;16.60;75.90;;;;;;6173045;28;20065;-79
2023/03/23 09:40:18;;;;;;;3.30;1.70;;;16.70;76.30;;;;;;6172489;28;20068;-77
2023/03/23 09:43:53;;;;;;;3.72;1.65;;;16.50;75.60;;;;;;6160574;28;20050;-77
2023/03/23 09:47:02;;;;;;;4.85;1.50;;;16.50;75.70;;;;;;6168654;28;20507;-76
2023/03/23 09:50:13;;;;;;;4.53;1.30;;;16.60;75.40;;;;;;6148819;29;20054;-77
2023/03/23 09:53:23;;;;;;;3.72;1.60;;;16.60;75.60;;;;;;6150546;28;20054;-78
2023/03/23 09:56:27;;;;;;;3.42;1.52;;;16.50;75.60;;;;;;6149278;29;20473;-77
2023/03/23 09:59:35;;;;;;;2.78;1.30;;;16.50;76.20;;;;;;6148802;29;20392;-77
2023/03/23 10:02:42;;;;;;;2.90;1.30;;;16.50;76.00;;;;;;6152362;29;20114;-78
2023/03/23 10:05:49;;;;;;;3.00;1.30;;;16.60;76.30;;;;;;6153504;28;20059;-80
2023/03/23 10:08:53;;;;;;;4.82;1.50;;;16.60;76.60;;;;;;6150441;28;20074;-77
2023/03/23 10:12:07;;;;;;;2.90;1.40;;;16.70;76.50;;;;;;6151418;29;20126;-77
2023/03/23 10:15:18;;;;;;;5.57;1.52;;;16.80;76.00;;;;;;6155122;29;20059;-76
2023/03/23 10:18:28;;;;;;;4.93;1.60;;;16.90;76.00;;;;;;6148887;29;20051;-79
2023/03/23 10:21:36;;;;;;;4.28;1.45;;;17.10;75.90;;;;;;6165048;28;20051;-78
2023/03/23 10:24:50;;;;;;;2.75;1.30;;;17.20;76.60;;;;;;6171693;28;20562;-78
2023/03/23 10:28:01;;;;;;;4.32;1.30;;;17.30;76.00;;;;;;6171643;28;20480;-80
2023/03/23 10:31:05;;;;;;;3.03;1.25;;;17.10;75.30;;;;;;6153333;28;20460;-79
2023/03/23 10:34:15;;;;;;;3.20;1.40;;;17.10;75.20;;;;;;6169934;28;20080;-79
2023/03/23 10:37:23;;;;;;;3.05;1.30;;;16.80;74.60;;;;;;6171806;28;20050;-80
2023/03/23 10:40:29;;;;;;;3.45;1.23;;;16.80;74.80;;;;;;6172125;28;20051;-80
2023/03/23 10:43:31;;;;;;;3.08;1.38;;;16.80;75.50;;;;;;6177243;28;20059;-80
2023/03/23 10:46:46;;;;;;;3.22;1.20;;;16.70;75.20;;;;;;6154436;29;20130;-79
2023/03/23 10:49:53;;;;;;;3.05;1.20;;;16.80;75.70;;;;;;6151835;29;20082;-79
2023/03/23 10:53:00;;;;;;;4.85;1.48;;;16.80;76.00;;;;;;6130346;29;20055;-79
2023/03/23 10:56:03;;;;;;;4.63;2.33;;;16.70;77.20;;;;;;6148484;28;20061;-79
2023/03/23 10:59:16;;;;;;;7.32;2.75;;;16.70;77.00;;;;;;6159720;28;20057;-79
2023/03/23 11:02:20;;;;;;;4.38;1.42;;;16.70;78.00;;;;;;6176184;28;20050;-80
2023/03/23 11:05:27;;;;;;;2.75;1.35;;;16.80;78.20;;;;;;6174218;28;20061;-80
2023/03/23 11:08:34;;;;;;;3.50;1.50;;;16.80;78.70;;;;;;6169780;28;20058;-79
2023/03/23 11:11:42;;;;;;;4.03;1.45;;;16.80;78.80;;;;;;6175866;28;20069;-77
2023/03/23 11:14:44;;;;;;;3.00;1.50;;;17.00;77.70;;;;;;6175245;28;20501;-80
2023/03/23 11:17:58;;;;;;;3.83;1.40;;;17.10;78.80;;;;;;6175856;28;20047;-77
2023/03/23 11:21:00;;;;;;;5.60;1.63;;;17.20;77.50;;;;;;6170278;28;20058;-78
2023/03/23 11:24:04;;;;;;;3.30;1.50;;;17.30;77.80;;;;;;6159063;28;20194;-77
2023/03/23 11:27:08;;;;;;;3.42;1.50;;;17.40;76.90;;;;;;6163841;28;20519;-77
2023/03/23 11:30:19;;;;;;;3.40;1.48;;;17.20;77.00;;;;;;6156526;28;20047;-79
2023/03/23 11:33:21;;;;;;;3.65;1.60;;;17.30;77.60;;;;;;6155941;28;20055;-78
2023/03/23 11:36:32;;;;;;;2.78;1.25;;;17.50;76.30;;;;;;6157990;28;20051;-79
2023/03/23 11:39:48;;;;;;;3.67;1.33;;;17.60;76.10;;;;;;6154123;29;20061;-79
2023/03/23 11:42:58;;;;;;;3.90;1.58;;;17.70;75.30;;;;;;6154156;29;20051;-79
2023/03/23 11:46:10;;;;;;;4.15;1.40;;;17.80;74.90;;;;;;6154419;29;20051;-78
2023/03/23 11:49:21;;;;;;;3.38;1.45;;;17.80;74.60;;;;;;6154165;29;20051;-79
2023/03/23 11:52:31;;;;;;;3.65;1.50;;;17.90;74.40;;;;;;6154352;29;20133;-79
2023/03/23 11:55:53;;;;;;;3.20;1.48;;;17.90;73.90;;;;;;6159406;29;20044;-77
2023/03/23 11:58:58;;;;;;;3.60;1.50;;;18.10;73.90;;;;;;6160070;29;20118;-79
2023/03/23 12:02:22;;;;;;;3.13;1.25;;;18.20;73.20;;;;;;6158192;29;20050;-78
2023/03/23 12:05:45;;;;;;;3.40;1.30;;;18.20;73.30;;;;;;6154224;29;20175;-79
2023/03/23 12:09:00;;;;;;;3.15;1.40;;;18.30;72.70;;;;;;6163778;28;20049;-80
2023/03/23 12:12:15;;;;;;;3.10;1.40;;;18.30;71.50;;;;;;6179061;28;20174;-80
2023/03/23 12:15:26;;;;;;;4.97;1.40;;;18.20;71.70;;;;;;6157594;28;20078;-78
2023/03/23 12:18:39;;;;;;;3.22;1.45;;;18.30;71.70;;;;;;6153499;29;20043;-79
2023/03/23 12:21:56;;;;;;;3.57;1.60;;;18.30;71.50;;;;;;6153670;29;20047;-79
2023/03/23 12:25:18;;;;;;;4.07;1.30;;;18.20;71.40;;;;;;6153220;29;20408;-81
2023/03/23 12:28:36;;;;;;;5.40;1.55;;;18.40;71.50;;;;;;6155140;29;20130;-78
2023/03/23 12:31:50;;;;;;;3.92;1.58;;;18.40;70.50;;;;;;6154250;29;20062;-78
2023/03/23 12:35:03;;;;;;;3.28;1.40;;;18.50;71.10;;;;;;6152971;29;20408;-78
2023/03/23 12:38:24;;;;;;;3.38;1.40;;;18.30;71.20;;;;;;6155037;28;20058;-79
2023/03/23 12:41:33;;;;;;;3.55;1.30;;;18.20;70.90;;;;;;6172616;28;20496;-79
2023/03/23 12:44:42;;;;;;;2.97;1.35;;;18.10;71.00;;;;;;6176937;28;20051;-80
2023/03/23 12:47:47;;;;;;;3.40;1.30;;;18.10;71.50;;;;;;6176914;28;20043;-78
2023/03/23 12:51:14;;;;;;;3.33;1.40;;;18.10;70.10;;;;;;6176948;28;20054;-77
2023/03/23 12:54:24;;;;;;;4.22;1.40;;;17.90;70.50;;;;;;6176214;28;20500;-79
2023/03/23 12:57:33;;;;;;;2.97;1.40;;;17.90;69.40;;;;;;6159294;28;20574;-78
2023/03/23 13:00:53;;;;;;;4.60;1.52;;;17.80;69.80;;;;;;6177107;28;20054;-79
2023/03/23 13:03:59;;;;;;;6.07;3.88;;;17.90;70.00;;;;;;6173197;28;20047;-78
2023/03/23 13:07:04;;;;;;;3.35;1.60;;;17.90;70.70;;;;;;6154074;28;20047;-78
2023/03/23 13:10:16;;;;;;;3.22;1.40;;;17.80;71.40;;;;;;6176767;28;20054;-77
2023/03/23 13:13:22;;;;;;;2.90;1.20;;;17.80;71.10;;;;;;6177358;28;20403;-80
2023/03/23 13:16:36;;;;;;;2.92;1.45;;;17.90;71.20;;;;;;6179628;28;20061;-79
2023/03/23 13:20:03;;;;;;;3.80;1.75;;;18.10;70.30;;;;;;6178407;28;20043;-80
2023/03/23 13:23:13;;;;;;;3.35;1.42;;;18.10;70.50;;;;;;6156014;29;20066;-78
2023/03/23 13:26:21;;;;;;;3.10;1.50;;;18.10;70.20;;;;;;6158374;29;20412;-78
2023/03/23 13:29:25;;;;;;;3.92;1.48;;;18.30;70.30;;;;;;6154295;29;20055;-80
2023/03/23 13:32:36;;;;;;;2.90;1.30;;;18.30;70.30;;;;;;6150219;28;20059;-78
2023/03/23 13:35:42;;;;;;;4.00;1.48;;;18.50;70.50;;;;;;6150960;28;20150;-80
2023/03/23 13:38:48;;;;;;;3.33;1.55;;;18.60;69.60;;;;;;6149815;29;20275;-79
2023/03/23 13:42:06;;;;;;;3.63;1.70;;;18.60;69.10;;;;;;6148776;29;20055;-81
2023/03/23 13:45:22;;;;;;;2.83;1.55;;;18.50;69.20;;;;;;6149169;29;20058;-82
2023/03/23 13:48:26;;;;;;;3.97;1.58;;;18.40;69.90;;;;;;6150715;28;20807;-77
2023/03/23 13:51:37;;;;;;;3.40;1.40;;;18.40;69.30;;;;;;6168569;28;20424;-80
2023/03/23 13:54:47;;;;;;;3.33;1.33;;;18.30;69.50;;;;;;6160734;28;20417;-80
2023/03/23 13:57:56;;;;;;;3.15;1.45;;;18.30;69.40;;;;;;6148645;29;20062;-79
2023/03/23 14:01:17;;;;;;;2.70;1.27;;;18.40;69.20;;;;;;6131545;29;20651;-80
2023/03/23 14:04:22;;;;;;;4.22;1.40;;;18.40;69.00;;;;;;6148848;29;20058;-79
2023/03/23 14:07:25;;;;;;;31.00;17.75;;;18.40;69.30;;;;;;6146253;29;20481;-79
2023/03/23 14:10:35;;;;;;;14.02;7.47;;;18.40;69.00;;;;;;6150039;29;20055;-79
2023/03/23 14:13:43;;;;;;;4.20;1.80;;;18.40;69.30;;;;;;6149168;29;20198;-79
2023/03/23 14:16:51;;;;;;;3.50;1.60;;;18.30;69.20;;;;;;6148856;28;20051;-79
2023/03/23 14:19:58;;;;;;;4.03;1.60;;;18.30;69.30;;;;;;6147998;29;20093;-81
2023/03/23 14:23:01;;;;;;;5.32;1.60;;;18.30;69.40;;;;;;6170638;28;20054;-80
2023/03/23 14:26:12;;;;;;;5.80;1.75;;;18.20;69.20;;;;;;6159039;28;20051;-78
2023/03/23 14:29:14;;;;;;;2.70;1.45;;;18.20;69.40;;;;;;6150782;28;20130;-80
2023/03/23 14:32:19;;;;;;;5.07;1.60;;;18.20;69.40;;;;;;6177125;28;20500;-80
2023/03/23 14:35:28;;;;;;;4.20;1.50;;;18.20;69.50;;;;;;6180390;28;20083;-77
2023/03/23 14:38:31;;;;;;;3.80;1.85;;;18.20;69.40;;;;;;6180431;28;20056;-79
2023/03/23 14:41:37;;;;;;;5.38;1.63;;;18.10;69.70;;;;;;6180753;28;20047;-78
2023/03/23 14:44:44;;;;;;;3.28;1.48;;;18.10;68.90;;;;;;6180138;28;20093;-79
2023/03/23 14:47:51;;;;;;;4.55;1.65;;;18.10;68.90;;;;;;6180571;28;20047;-77
2023/03/23 14:50:59;;;;;;;4.82;1.85;;;18.10;68.10;;;;;;6180135;28;20046;-77
2023/03/23 14:54:01;;;;;;;4.60;1.83;;;18.10;68.50;;;;;;6180548;28;20327;-78
2023/03/23 14:57:13;;;;;;;5.53;2.60;;;18.10;68.30;;;;;;6179843;28;20508;-80
2023/03/23 15:00:18;;;;;;;6.67;3.77;;;18.10;68.00;;;;;;6180281;28;20136;-76
2023/03/23 15:03:20;;;;;;;3.75;1.73;;;18.10;67.80;;;;;;6179444;28;20346;-79
2023/03/23 15:06:29;;;;;;;4.72;1.88;;;18.10;67.80;;;;;;6180576;28;20491;-80
2023/03/23 15:09:33;;;;;;;4.15;1.60;;;18.10;67.80;;;;;;6179650;28;20101;-78
2023/03/23 15:12:36;;;;;;;4.75;1.80;;;18.00;67.50;;;;;;6179684;28;20043;-79
2023/03/23 15:15:38;;;;;;;5.15;1.88;;;18.00;67.80;;;;;;6179412;28;20047;-77
2023/03/23 15:18:41;;;;;;;3.92;1.80;;;18.00;67.60;;;;;;6179687;28;20043;-78
2023/03/23 15:21:53;;;;;;;3.85;1.70;;;18.00;67.70;;;;;;6179341;28;20047;-79
2023/03/23 15:25:05;;;;;;;4.05;1.95;;;18.00;67.80;;;;;;6179267;28;20061;-79
2023/03/23 15:28:18;;;;;;;3.60;1.70;;;18.00;67.90;;;;;;6179228;28;20049;-79
2023/03/23 15:31:25;;;;;;;3.75;1.70;;;17.90;68.20;;;;;;6178858;28;20182;-78
2023/03/23 15:34:38;;;;;;;3.22;1.60;;;17.90;68.00;;;;;;6178497;28;20057;-79
2023/03/23 15:37:46;;;;;;;4.72;2.00;;;17.90;67.90;;;;;;6178668;28;20385;-79
2023/03/23 15:40:51;;;;;;;4.85;2.10;;;17.80;67.90;;;;;;6178346;28;20058;-78
2023/03/23 15:43:57;;;;;;;3.10;1.60;;;17.90;68.30;;;;;;6177135;28;20050;-78
2023/03/23 15:47:17;;;;;;;4.45;1.67;;;17.80;68.20;;;;;;6178193;28;20054;-78
2023/03/23 15:50:21;;;;;;;4.68;1.77;;;17.70;68.10;;;;;;6178424;28;20480;-80
2023/03/23 15:53:36;;;;;;;4.63;1.70;;;17.70;68.60;;;;;;6178219;28;20122;-79
2023/03/23 15:56:38;;;;;;;4.68;1.73;;;17.70;68.70;;;;;;6177997;28;20448;-78
2023/03/23 15:59:40;;;;;;;7.20;4.45;;;17.60;69.00;;;;;;6178905;28;20050;-79
2023/03/23 16:02:43;;;;;;;3.92;1.98;;;17.60;69.20;;;;;;6181798;28;20054;-79
2023/03/23 16:05:45;;;;;;;3.88;1.92;;;17.50;69.20;;;;;;6180325;28;20066;-79
2023/03/23 16:08:48;;;;;;;3.60;1.83;;;17.40;69.50;;;;;;6179233;28;20094;-78
2023/03/23 16:11:50;;;;;;;4.63;2.85;;;17.40;69.50;;;;;;6177887;28;20051;-77
2023/03/23 16:14:52;;;;;;;5.07;2.30;;;17.30;69.70;;;;;;6177916;28;20053;-78
2023/03/23 16:17:54;;;;;;;3.95;1.60;;;17.30;69.70;;;;;;6177686;28;20054;-77
2023/03/23 16:20:56;;;;;;;5.90;1.90;;;17.20;69.70;;;;;;6177522;28;20404;-78
2023/03/23 16:23:59;;;;;;;4.45;1.80;;;17.30;69.90;;;;;;6177273;28;20485;-79
2023/03/23 16:27:01;;;;;;;5.45;2.10;;;17.30;70.10;;;;;;6177171;28;20051;-79
2023/03/23 16:30:12;;;;;;;5.72;2.70;;;17.30;70.20;;;;;;6177685;28;20510;-77
2023/03/23 16:33:14;;;;;;;5.88;2.53;;;17.30;70.30;;;;;;6173549;28;20043;-78
2023/03/23 16:36:16;;;;;;;4.25;1.98;;;17.30;70.20;;;;;;6173351;28;20046;-80
2023/03/23 16:39:20;;;;;;;4.18;1.95;;;17.20;70.20;;;;;;6184954;28;20078;-79
2023/03/23 16:42:21;;;;;;;4.03;1.70;;;17.20;70.70;;;;;;6171152;28;20048;-77
2023/03/23 16:45:23;;;;;;;6.63;2.28;;;17.10;70.70;;;;;;6177234;28;20054;-78
2023/03/23 16:48:25;;;;;;;3.90;1.90;;;17.10;70.80;;;;;;6175584;28;20042;-77
2023/03/23 16:51:27;;;;;;;5.10;2.80;;;17.10;71.00;;;;;;6172513;28;20043;-76
2023/03/23 16:54:31;;;;;;;5.00;2.20;;;17.10;71.30;;;;;;6161227;28;20051;-79
2023/03/23 16:57:36;;;;;;;4.72;2.20;;;17.10;71.10;;;;;;6157405;28;20044;-78
2023/03/23 17:00:39;;;;;;;6.03;2.85;;;17.10;71.20;;;;;;6169405;28;20055;-77
2023/03/23 17:03:42;;;;;;;6.35;1.80;;;17.10;71.20;;;;;;6171726;28;20509;-79
2023/03/23 17:06:45;;;;;;;5.53;2.42;;;17.10;71.40;;;;;;6150413;28;20203;-77
2023/03/23 17:09:49;;;;;;;5.55;2.08;;;17.10;71.50;;;;;;6149565;28;20043;-78
2023/03/23 17:12:53;;;;;;;;;;;17.10;71.40;;;;;;6150863;28;20062;-79
2023/03/23 17:15:56;;;;;;;5.68;2.38;;;17.10;71.60;;;;;;6159593;28;19927;-77
2023/03/23 17:18:58;;;;;;;5.70;2.10;;;17.10;71.80;;;;;;6158791;28;20051;-79
2023/03/23 17:22:00;;;;;;;4.95;2.10;;;17.10;71.80;;;;;;6178631;28;20046;-79
2023/03/23 17:25:06;;;;;;;3.90;1.88;;;17.10;71.90;;;;;;6158688;28;20055;-77
2023/03/23 17:28:08;;;;;;;6.30;2.10;;;17.10;72.00;;;;;;6162823;28;20058;-77
2023/03/23 17:31:10;;;;;;;5.55;1.90;;;17.10;72.30;;;;;;6151519;28;20390;-78
2023/03/23 17:34:11;;;;;;;5.97;2.45;;;17.00;72.30;;;;;;6170244;28;20109;-76
2023/03/23 17:37:14;;;;;;;5.97;2.45;;;17.00;72.50;;;;;;6171365;28;20139;-78
2023/03/23 17:40:18;;;;;;;6.18;2.28;;;17.00;72.50;;;;;;6164524;28;20456;-78
2023/03/23 17:43:20;;;;;;;6.05;2.17;;;17.10;72.50;;;;;;6153854;28;20055;-78
2023/03/23 17:46:22;;;;;;;5.03;2.03;;;17.00;73.10;;;;;;6152464;28;20389;-77
2023/03/23 17:49:24;;;;;;;5.28;2.42;;;16.80;73.10;;;;;;6171655;28;20051;-78
2023/03/23 17:52:26;;;;;;;5.38;2.20;;;16.90;73.20;;;;;;6174879;28;20051;-78
2023/03/23 17:55:29;;;;;;;7.00;4.03;;;16.90;73.10;;;;;;6162391;28;20424;-80
2023/03/23 17:58:32;;;;;;;5.85;2.78;;;16.90;73.00;;;;;;6168153;28;20106;-77
2023/03/23 18:01:34;;;;;;;5.45;2.17;;;16.90;73.00;;;;;;6185107;28;20053;-79
2023/03/23 18:04:36;;;;;;;4.65;2.30;;;16.90;73.00;;;;;;6174867;28;20054;-79
2023/03/23 18:07:38;;;;;;;4.72;2.22;;;16.80;73.20;;;;;;6176780;28;20477;-77
2023/03/23 18:10:41;;;;;;;5.25;2.35;;;16.80;73.30;;;;;;6185251;28;20046;-78
2023/03/23 18:13:43;;;;;;;3.90;2.00;;;16.80;73.20;;;;;;6163612;28;20054;-79
2023/03/23 18:16:45;;;;;;;4.63;2.08;;;16.70;73.20;;;;;;6171910;28;20061;-79
2023/03/23 18:19:47;;;;;;;6.10;2.10;;;16.80;73.40;;;;;;6166653;28;20043;-80
2023/03/23 18:22:49;;;;;;;4.50;2.30;;;16.80;73.60;;;;;;6172297;28;20058;-79
2023/03/23 18:25:53;;;;;;;6.18;2.30;;;16.70;73.60;;;;;;6171526;28;20062;-77
2023/03/23 18:28:55;;;;;;;;;;;16.80;73.70;;;;;;6173487;28;20058;-78
2023/03/23 18:31:57;;;;;;;4.10;2.00;;;16.70;73.50;;;;;;6163510;28;19929;-79
2023/03/23 18:34:59;;;;;;;4.28;2.08;;;16.70;73.50;;;;;;6167195;28;20058;-79
2023/03/23 18:38:01;;;;;;;4.82;2.03;;;16.70;73.60;;;;;;6161507;28;20141;-79
2023/03/23 18:41:08;;;;;;;5.35;2.08;;;16.70;73.60;;;;;;6173035;28;20047;-80
2023/03/23 18:44:10;;;;;;;4.07;1.80;;;16.70;73.60;;;;;;6182852;28;20053;-78
2023/03/23 18:47:11;;;;;;;5.35;2.30;;;16.70;73.60;;;;;;6157664;28;20076;-81
2023/03/23 18:50:14;;;;;;;4.18;1.73;;;16.70;73.60;;;;;;6162746;28;20054;-77
2023/03/23 18:53:16;;;;;;;4.60;1.83;;;16.70;73.60;;;;;;6148182;28;20055;-80
2023/03/23 18:56:20;;;;;;;3.55;1.88;;;16.70;73.60;;;;;;6151294;28;20843;-79
2023/03/23 18:59:22;;;;;;;4.50;2.20;;;16.70;73.50;;;;;;6166461;28;20046;-79
2023/03/23 19:02:24;;;;;;;5.53;2.10;;;16.70;73.30;;;;;;6164227;28;20051;-78
2023/03/23 19:05:27;;;;;;;3.92;2.20;;;16.70;73.00;;;;;;6147794;28;20378;-79
2023/03/23 19:08:30;;;;;;;4.13;1.95;;;16.70;73.20;;;;;;6163482;28;20047;-78
2023/03/23 19:11:33;;;;;;;5.00;2.38;;;16.70;72.80;;;;;;6164540;28;20659;-80
2023/03/23 19:14:35;;;;;;;5.18;2.30;;;16.70;72.80;;;;;;6162744;28;20054;-80
2023/03/23 19:17:37;;;;;;;5.07;2.10;;;16.70;73.10;;;;;;6180003;28;20054;-78
2023/03/23 19:20:41;;;;;;;3.88;1.88;;;16.60;73.00;;;;;;6175451;28;20047;-81
2023/03/23 19:23:43;;;;;;;4.00;1.90;;;16.70;72.70;;;;;;6173533;28;20137;-77
2023/03/23 19:26:47;;;;;;;4.38;2.15;;;16.70;72.80;;;;;;6171695;28;20054;-81
2023/03/23 19:29:49;;;;;;;4.53;1.77;;;16.70;72.50;;;;;;6174658;28;20046;-79
2023/03/23 19:32:51;;;;;;;3.95;1.83;;;16.70;72.80;;;;;;6173719;28;20152;-78
2023/03/23 19:35:53;;;;;;;4.05;2.00;;;16.70;72.50;;;;;;6173686;28;20503;-80
2023/03/23 19:38:56;;;;;;;4.00;1.92;;;16.70;72.40;;;;;;6169110;28;20043;-77
2023/03/23 19:41:59;;;;;;;4.60;1.90;;;16.70;72.70;;;;;;6160993;28;20374;-78
2023/03/23 19:45:01;;;;;;;4.15;1.80;;;16.60;72.40;;;;;;6171477;28;20468;-76
2023/03/23 19:48:04;;;;;;;4.72;1.85;;;16.70;72.50;;;;;;6174465;28;20443;-78
2023/03/23 19:51:07;;;;;;;5.93;1.98;;;16.60;73.20;;;;;;6168283;28;20512;-79
2023/03/23 19:54:11;;;;;;;;;;;16.70;72.40;;;;;;6160530;28;20047;-77
2023/03/23 19:57:15;;;;;;;3.92;1.85;;;16.70;72.10;;;;;;6164048;28;19922;-79
2023/03/23 20:00:17;;;;;;;5.80;1.80;;;16.70;72.50;;;;;;6174149;28;20055;-82
2023/03/23 20:03:19;;;;;;;4.50;1.88;;;16.70;72.10;;;;;;6174088;28;20480;-80
2023/03/23 20:06:21;;;;;;;2.90;1.42;;;16.70;71.80;;;;;;6173602;28;20054;-79
2023/03/23 20:09:23;;;;;;;4.05;1.85;;;16.70;71.60;;;;;;6156715;28;20051;-77
2023/03/23 20:12:27;;;;;;;3.05;1.58;;;16.70;71.20;;;;;;6149430;29;20047;-79
2023/03/23 20:15:29;;;;;;;;;;;16.70;71.20;;;;;;6150328;29;20489;-78
2023/03/23 20:18:32;;;;;;;3.60;1.60;;;16.70;71.00;;;;;;6150337;29;20061;-77
2023/03/23 20:21:35;;;;;;;4.03;1.50;;;16.70;70.90;;;;;;6160497;28;20042;-78
2023/03/23 20:24:37;;;;;;;6.25;1.80;;;16.70;70.30;;;;;;6173706;28;20050;-79
2023/03/23 20:27:41;;;;;;;3.92;1.60;;;16.70;70.10;;;;;;6173680;28;20686;-78
2023/03/23 20:30:43;;;;;;;4.47;1.70;;;16.70;69.80;;;;;;6173391;28;20051;-80
2023/03/23 20:33:45;;;;;;;3.35;1.50;;;16.70;69.70;;;;;;6173801;28;20058;-78
2023/03/23 20:36:48;;;;;;;3.80;1.73;;;16.80;69.50;;;;;;6176259;28;20150;-77
2023/03/23 20:39:51;;;;;;;4.22;1.88;;;16.80;69.50;;;;;;6202934;28;20050;-78
2023/03/23 20:42:56;;;;;;;4.65;1.63;;;16.80;69.50;;;;;;6206567;28;20062;-76
2023/03/23 20:46:00;;;;;;;3.75;1.52;;;16.80;70.00;;;;;;6207778;28;20061;-77
2023/03/23 20:49:04;;;;;;;3.28;1.45;;;16.70;70.00;;;;;;6176386;28;20495;-77
2023/03/23 20:52:10;;;;;;;6.35;1.88;;;16.80;70.20;;;;;;6151394;29;20061;-77
2023/03/23 20:55:14;;;;;;;4.15;1.73;;;16.70;70.30;;;;;;6159727;28;20712;-78
2023/03/23 20:58:18;;;;;;;4.20;1.75;;;16.70;70.80;;;;;;6165948;28;20454;-77
2023/03/23 21:01:20;;;;;;;7.90;4.18;;;16.70;71.50;;;;;;6186561;28;20054;-77
2023/03/23 21:04:26;;;;;;;5.53;2.67;;;16.70;72.00;;;;;;6200489;28;20065;-77
2023/03/23 21:07:29;;;;;;;4.18;2.17;;;16.70;72.40;;;;;;6196791;28;20090;-78
2023/03/23 21:10:31;;;;;;;3.97;1.88;;;16.70;72.50;;;;;;6164053;28;20070;-78
2023/03/23 21:13:35;;;;;;;3.78;1.90;;;16.70;72.60;;;;;;6149009;29;20053;-77
2023/03/23 21:16:37;;;;;;;4.72;1.98;;;16.70;73.10;;;;;;6150190;28;20385;-76
2023/03/23 21:19:39;;;;;;;4.00;1.80;;;16.60;73.00;;;;;;6150092;28;20054;-79
2023/03/23 21:22:41;;;;;;;3.97;1.67;;;16.60;73.30;;;;;;6154817;28;20047;-77
2023/03/23 21:25:43;;;;;;;3.78;1.70;;;16.60;73.30;;;;;;6176881;28;20047;-79
2023/03/23 21:28:49;;;;;;;5.68;2.00;;;16.60;73.20;;;;;;6180970;28;20389;-78
2023/03/23 21:31:51;;;;;;;5.00;2.08;;;16.60;73.00;;;;;;6179699;28;20122;-79
2023/03/23 21:34:53;;;;;;;4.40;1.85;;;16.60;73.00;;;;;;6178556;28;20046;-75
2023/03/23 21:37:56;;;;;;;4.53;1.90;;;16.60;73.10;;;;;;6175550;28;20065;-76
2023/03/23 21:41:06;;;;;;;3.67;1.70;;;16.60;73.00;;;;;;6175554;28;20053;-79
2023/03/23 21:44:09;;;;;;;4.03;1.70;;;16.50;72.80;;;;;;6175073;28;20054;-77
2023/03/23 21:47:12;;;;;;;3.78;1.55;;;16.60;72.90;;;;;;6174683;28;20053;-79
2023/03/23 21:50:15;;;;;;;3.10;1.45;;;16.50;72.90;;;;;;6157402;28;20051;-77
2023/03/23 21:53:17;;;;;;;4.13;1.80;;;16.60;72.90;;;;;;6160172;28;20052;-79
2023/03/23 21:56:21;;;;;;;3.47;1.60;;;16.60;72.70;;;;;;6175422;28;20054;-78
2023/03/23 21:59:24;;;;;;;6.03;1.75;;;16.50;72.80;;;;;;6175207;28;20054;-78
2023/03/23 22:02:26;;;;;;;;;;;16.60;72.80;;;;;;6175724;28;20058;-78
2023/03/23 22:05:29;;;;;;;4.88;1.80;;;16.50;72.90;;;;;;6174677;28;19929;-78
2023/03/23 22:08:31;;;;;;;4.35;1.60;;;16.50;72.80;;;;;;6174861;28;20057;-79
2023/03/23 22:11:34;;;;;;;5.88;1.65;;;16.50;72.80;;;;;;6167859;28;20047;-79
2023/03/23 22:14:38;;;;;;;4.07;1.67;;;16.60;72.70;;;;;;6151072;29;20485;-79
2023/03/23 22:17:40;;;;;;;3.58;1.77;;;16.50;73.00;;;;;;6167412;28;20051;-79
2023/03/23 22:20:42;;;;;;;4.50;1.80;;;16.50;72.90;;;;;;6174573;28;20058;-78
2023/03/23 22:23:45;;;;;;;4.13;1.88;;;16.60;73.00;;;;;;6174702;28;20046;-79
2023/03/23 22:26:47;;;;;;;4.57;1.70;;;16.60;73.10;;;;;;6174945;28;20047;-79
2023/03/23 22:29:51;;;;;;;3.83;1.70;;;16.50;72.90;;;;;;6175118;28;20055;-80
2023/03/23 22:32:53;;;;;;;5.22;1.80;;;16.50;72.80;;;;;;6175420;28;20055;-78
2023/03/23 22:35:55;;;;;;;3.35;1.77;;;16.50;72.90;;;;;;6161820;28;20179;-79
2023/03/23 22:38:57;;;;;;;4.50;1.73;;;16.50;73.00;;;;;;6161167;28;20139;-79
2023/03/23 22:41:59;;;;;;;3.60;1.80;;;16.50;73.00;;;;;;6174799;28;20507;-79
2023/03/23 22:45:02;;;;;;;6.32;2.70;;;16.50;72.90;;;;;;6175000;28;20042;-78
2023/03/23 22:48:06;;;;;;;4.63;2.05;;;16.50;72.90;;;;;;6174924;28;20079;-79
2023/03/23 22:51:09;;;;;;;3.65;1.60;;;16.50;73.10;;;;;;6174500;28;20508;-81
2023/03/23 22:54:11;;;;;;;3.28;1.50;;;16.50;73.50;;;;;;6164851;28;20047;-78
2023/03/23 22:57:13;;;;;;;4.55;1.60;;;16.40;73.70;;;;;;6155468;29;20078;-80
